createdAt,value
2018-08-04T00:00:07.294Z,1020.33
2018-08-04T00:01:17.144Z,1020.33
2018-08-04T00:04:05.818Z,1020.33
2018-08-04T00:05:15.661Z,1020.34
2018-08-04T00:06:25.236Z,1020.34
2018-08-04T00:07:35.088Z,1020.3
2018-08-04T00:08:44.396Z,1020.24
2018-08-04T00:09:54.512Z,1020.27
2018-08-04T00:11:04.092Z,1020.21
2018-08-04T00:12:13.665Z,1020.19
2018-08-04T00:13:23.524Z,1020.19
2018-08-04T00:14:33.634Z,1020.21
2018-08-04T00:15:43.483Z,1020.18
2018-08-04T00:16:53.056Z,1020.2
2018-08-04T00:18:02.639Z,1020.21
2018-08-04T00:19:12.531Z,1020.22
2018-08-04T00:20:22.383Z,1020.2
2018-08-04T00:21:32.228Z,1020.23
2018-08-04T00:22:42.347Z,1020.16
2018-08-04T00:23:52.226Z,1020.21
2018-08-04T00:25:01.797Z,1020.18
2018-08-04T00:26:11.379Z,1020.17
2018-08-04T00:27:21.509Z,1020.21
2018-08-04T00:28:31.355Z,1020.2
2018-08-04T00:29:41.197Z,1020.22
2018-08-04T00:30:50.770Z,1020.24
2018-08-04T00:32:00.615Z,1020.21
2018-08-04T00:33:10.459Z,1020.18
2018-08-04T00:34:20.301Z,1020.2
2018-08-04T00:35:30.142Z,1020.22
2018-08-04T00:36:39.444Z,1020.25
2018-08-04T00:37:48.755Z,1020.19
2018-08-04T00:38:58.605Z,1020.19
2018-08-04T00:40:08.446Z,1020.21
2018-08-04T00:41:18.307Z,1020.24
2018-08-04T00:42:27.881Z,1020.22
2018-08-04T00:43:37.452Z,1020.25
2018-08-04T00:44:47.559Z,1020.23
2018-08-04T00:45:57.400Z,1020.24
2018-08-04T00:47:07.517Z,1020.26
2018-08-04T00:48:17.634Z,1020.27
2018-08-04T00:49:27.208Z,1020.26
2018-08-04T00:50:37.054Z,1020.32
2018-08-04T00:51:46.632Z,1020.24
2018-08-04T00:52:56.200Z,1020.24
2018-08-04T00:54:05.780Z,1020.25
2018-08-04T00:55:15.355Z,1020.27
2018-08-04T00:56:24.934Z,1020.27
2018-08-04T00:57:34.503Z,1020.28
2018-08-04T00:58:44.084Z,1020.22
2018-08-04T00:59:53.661Z,1020.25
2018-08-04T01:01:03.521Z,1020.24
2018-08-04T01:02:13.369Z,1020.29
2018-08-04T01:03:23.483Z,1020.3
2018-08-04T01:04:33.330Z,1020.3
2018-08-04T01:05:42.908Z,1020.28
2018-08-04T01:06:52.206Z,1020.27
2018-08-04T01:08:02.331Z,1020.27
2018-08-04T01:09:12.180Z,1020.25
2018-08-04T01:10:21.758Z,1020.24
2018-08-04T01:11:31.062Z,1020.28
2018-08-04T01:12:40.909Z,1020.23
2018-08-04T01:13:50.211Z,1020.24
2018-08-04T01:14:59.790Z,1020.22
2018-08-04T01:16:09.415Z,1020.22
2018-08-04T01:17:18.729Z,1020.26
2018-08-04T01:18:28.301Z,1020.21
2018-08-04T01:19:37.875Z,1020.2
2018-08-04T01:20:47.183Z,1020.17
2018-08-04T01:21:57.032Z,1020.13
2018-08-04T01:23:06.334Z,1020.14
2018-08-04T01:24:15.912Z,1020.07
2018-08-04T01:25:25.752Z,1020.1
2018-08-04T01:26:35.324Z,1020.06
2018-08-04T01:27:45.218Z,1020.08
2018-08-04T01:28:55.332Z,1020.08
2018-08-04T01:30:04.907Z,1020.09
2018-08-04T01:31:14.483Z,1020.06
2018-08-04T01:32:24.092Z,1020.11
2018-08-04T01:33:33.935Z,1020.06
2018-08-04T01:34:43.511Z,1020.05
2018-08-04T01:35:52.550Z,1020.05
2018-08-04T01:37:02.683Z,1020.08
2018-08-04T01:38:12.527Z,1020.01
2018-08-04T01:39:21.887Z,1020.03
2018-08-04T01:40:32.009Z,1019.97
2018-08-04T01:41:41.312Z,1019.96
2018-08-04T01:42:50.927Z,1019.97
2018-08-04T01:44:00.780Z,1019.91
2018-08-04T01:45:10.710Z,1019.9
2018-08-04T01:46:20.821Z,1019.84
2018-08-04T01:47:30.667Z,1019.81
2018-08-04T01:48:40.509Z,1019.82
2018-08-04T01:49:49.817Z,1019.78
2018-08-04T01:50:59.946Z,1019.81
2018-08-04T01:52:10.085Z,1019.82
2018-08-04T01:53:19.938Z,1019.73
2018-08-04T01:54:29.776Z,1019.78
2018-08-04T01:55:39.078Z,1019.77
2018-08-04T01:56:48.652Z,1019.83
2018-08-04T01:57:58.503Z,1019.84
2018-08-04T01:59:08.409Z,1019.84
2018-08-04T02:00:18.198Z,1019.81
2018-08-04T02:01:28.327Z,1019.81
2018-08-04T02:02:37.901Z,1019.78
2018-08-04T02:03:47.481Z,1019.82
2018-08-04T02:04:56.783Z,1019.79
2018-08-04T02:06:06.354Z,1019.8
2018-08-04T02:07:16.223Z,1019.79
2018-08-04T02:08:26.360Z,1019.78
2018-08-04T02:09:36.199Z,1019.83
2018-08-04T02:10:45.777Z,1019.82
2018-08-04T02:11:55.345Z,1019.83
2018-08-04T02:13:05.189Z,1019.85
2018-08-04T02:14:14.768Z,1019.84
2018-08-04T02:15:24.621Z,1019.83
2018-08-04T02:16:34.193Z,1019.83
2018-08-04T02:17:43.765Z,1019.79
2018-08-04T02:18:53.347Z,1019.77
2018-08-04T02:20:02.114Z,1019.79
2018-08-04T02:21:11.421Z,1019.76
2018-08-04T02:22:21.533Z,1019.8
2018-08-04T02:23:31.108Z,1019.79
2018-08-04T02:24:40.948Z,1019.82
2018-08-04T02:25:51.067Z,1019.74
2018-08-04T02:27:00.910Z,1019.72
2018-08-04T02:28:10.490Z,1019.74
2018-08-04T02:29:20.068Z,1019.74
2018-08-04T02:30:29.639Z,1019.71
2018-08-04T02:31:39.763Z,1019.68
2018-08-04T02:32:49.614Z,1019.64
2018-08-04T02:33:59.202Z,1019.62
2018-08-04T02:35:09.061Z,1019.63
2018-08-04T02:36:18.920Z,1019.62
2018-08-04T02:37:28.835Z,1019.57
2018-08-04T02:38:38.965Z,1019.62
2018-08-04T02:39:49.098Z,1019.55
2018-08-04T02:40:58.680Z,1019.58
2018-08-04T02:42:08.548Z,1019.54
2018-08-04T02:43:18.504Z,1019.55
2018-08-04T02:44:28.354Z,1019.5
2018-08-04T02:45:38.479Z,1019.46
2018-08-04T02:46:48.073Z,1019.51
2018-08-04T02:47:57.984Z,1019.53
2018-08-04T02:49:07.571Z,1019.51
2018-08-04T02:50:16.873Z,1019.54
2018-08-04T02:51:26.449Z,1019.51
2018-08-04T02:52:36.296Z,1019.52
2018-08-04T02:53:45.616Z,1019.53
2018-08-04T02:54:55.461Z,1019.54
2018-08-04T02:56:05.307Z,1019.5
2018-08-04T02:57:14.884Z,1019.45
2018-08-04T02:58:24.463Z,1019.5
2018-08-04T02:59:34.316Z,1019.46
2018-08-04T03:00:44.488Z,1019.48
2018-08-04T03:01:54.077Z,1019.52
2018-08-04T03:03:03.935Z,1019.51
2018-08-04T03:04:14.074Z,1019.51
2018-08-04T03:05:23.646Z,1019.52
2018-08-04T03:06:33.506Z,1019.49
2018-08-04T03:07:43.624Z,1019.43
2018-08-04T03:08:53.760Z,1019.45
2018-08-04T03:10:03.343Z,1019.45
2018-08-04T03:11:13.202Z,1019.42
2018-08-04T03:12:23.372Z,1019.45
2018-08-04T03:13:32.416Z,1019.43
2018-08-04T03:14:42.279Z,1019.45
2018-08-04T03:15:51.582Z,1019.47
2018-08-04T03:17:01.168Z,1019.44
2018-08-04T03:18:11.077Z,1019.48
2018-08-04T03:19:20.933Z,1019.49
2018-08-04T03:20:30.516Z,1019.52
2018-08-04T03:21:40.115Z,1019.49
2018-08-04T03:22:49.968Z,1019.45
2018-08-04T03:23:59.817Z,1019.46
2018-08-04T03:25:09.668Z,1019.43
2018-08-04T03:26:19.257Z,1019.39
2018-08-04T03:27:29.106Z,1019.43
2018-08-04T03:28:38.975Z,1019.43
2018-08-04T03:29:48.838Z,1019.48
2018-08-04T03:30:58.146Z,1019.43
2018-08-04T03:32:07.735Z,1019.42
2018-08-04T03:33:17.047Z,1019.41
2018-08-04T03:34:27.211Z,1019.42
2018-08-04T03:35:37.334Z,1019.39
2018-08-04T03:36:46.915Z,1019.4
2018-08-04T03:37:56.493Z,1019.43
2018-08-04T03:39:05.802Z,1019.41
2018-08-04T03:40:15.378Z,1019.43
2018-08-04T03:41:25.223Z,1019.4
2018-08-04T03:42:34.527Z,1019.38
2018-08-04T03:43:44.374Z,1019.36
2018-08-04T03:44:54.217Z,1019.36
2018-08-04T03:46:03.521Z,1019.36
2018-08-04T03:47:12.825Z,1019.37
2018-08-04T03:48:22.936Z,1019.36
2018-08-04T03:49:32.774Z,1019.37
2018-08-04T03:50:42.356Z,1019.43
2018-08-04T03:51:51.665Z,1019.46
2018-08-04T03:53:01.779Z,1019.47
2018-08-04T03:54:11.623Z,1019.42
2018-08-04T03:55:21.203Z,1019.44
2018-08-04T03:56:30.772Z,1019.44
2018-08-04T03:57:40.620Z,1019.42
2018-08-04T03:58:50.740Z,1019.52
2018-08-04T04:00:00.860Z,1019.51
2018-08-04T04:01:10.712Z,1019.54
2018-08-04T04:02:20.829Z,1019.53
2018-08-04T04:03:30.412Z,1019.52
2018-08-04T04:04:39.986Z,1019.6
2018-08-04T04:05:49.880Z,1019.58
2018-08-04T04:07:00.010Z,1019.58
2018-08-04T04:08:09.592Z,1019.56
2018-08-04T04:09:19.165Z,1019.48
2018-08-04T04:10:28.742Z,1019.44
2018-08-04T04:11:38.322Z,1019.45
2018-08-04T04:12:47.625Z,1019.46
2018-08-04T04:13:56.931Z,1019.45
2018-08-04T04:15:06.779Z,1019.48
2018-08-04T04:16:16.927Z,1019.42
2018-08-04T04:17:26.771Z,1019.43
2018-08-04T04:18:36.620Z,1019.41
2018-08-04T04:19:46.461Z,1019.37
2018-08-04T04:20:56.038Z,1019.36
2018-08-04T04:22:05.346Z,1019.39
2018-08-04T04:23:14.962Z,1019.39
2018-08-04T04:24:24.809Z,1019.44
2018-08-04T04:25:34.388Z,1019.38
2018-08-04T04:26:44.236Z,1019.41
2018-08-04T04:27:54.084Z,1019.38
2018-08-04T04:29:04.218Z,1019.43
2018-08-04T04:30:14.060Z,1019.47
2018-08-04T04:31:23.902Z,1019.54
2018-08-04T04:32:33.478Z,1019.57
2018-08-04T04:33:42.839Z,1019.61
2018-08-04T04:34:52.684Z,1019.63
2018-08-04T04:36:02.535Z,1019.65
2018-08-04T04:37:11.883Z,1019.64
2018-08-04T04:38:22.008Z,1019.64
2018-08-04T04:39:32.183Z,1019.59
2018-08-04T04:40:41.759Z,1019.52
2018-08-04T04:41:51.068Z,1019.54
2018-08-04T04:43:00.922Z,1019.58
2018-08-04T04:44:10.770Z,1019.57
2018-08-04T04:45:20.344Z,1019.58
2018-08-04T04:46:29.933Z,1019.62
2018-08-04T04:47:39.794Z,1019.61
2018-08-04T04:48:49.648Z,1019.62
2018-08-04T04:49:59.509Z,1019.63
2018-08-04T04:51:08.867Z,1019.59
2018-08-04T04:52:18.978Z,1019.61
2018-08-04T04:53:28.825Z,1019.61
2018-08-04T04:54:38.134Z,1019.62
2018-08-04T04:55:47.985Z,1019.65
2018-08-04T04:56:57.831Z,1019.68
2018-08-04T04:58:07.687Z,1019.68
2018-08-04T04:59:17.550Z,1019.69
2018-08-04T05:00:27.124Z,1019.7
2018-08-04T05:01:36.425Z,1019.7
2018-08-04T05:02:46.010Z,1019.69
2018-08-04T05:03:55.597Z,1019.69
2018-08-04T05:05:05.448Z,1019.72
2018-08-04T05:06:15.039Z,1019.67
2018-08-04T05:07:24.884Z,1019.71
2018-08-04T05:08:34.740Z,1019.71
2018-08-04T05:09:44.751Z,1019.69
2018-08-04T05:10:54.337Z,1019.69
2018-08-04T05:12:03.913Z,1019.72
2018-08-04T05:13:13.801Z,1019.71
2018-08-04T05:14:23.859Z,1019.7
2018-08-04T05:15:33.981Z,1019.72
2018-08-04T05:16:43.557Z,1019.72
2018-08-04T05:17:53.675Z,1019.76
2018-08-04T05:19:03.253Z,1019.75
2018-08-04T05:20:13.154Z,1019.76
2018-08-04T05:21:22.727Z,1019.76
2018-08-04T05:22:32.762Z,1019.74
2018-08-04T05:23:42.337Z,1019.77
2018-08-04T05:24:51.910Z,1019.83
2018-08-04T05:26:01.485Z,1019.84
2018-08-04T05:27:10.789Z,1019.9
2018-08-04T05:28:20.366Z,1019.86
2018-08-04T05:29:29.674Z,1019.87
2018-08-04T05:30:39.792Z,1019.89
2018-08-04T05:31:49.097Z,1019.88
2018-08-04T05:32:59.160Z,1019.89
2018-08-04T05:34:08.739Z,1019.93
2018-08-04T05:35:18.595Z,1019.86
2018-08-04T05:36:28.720Z,1019.86
2018-08-04T05:37:38.573Z,1019.83
2018-08-04T05:38:48.684Z,1019.85
2018-08-04T05:39:58.528Z,1019.85
2018-08-04T05:41:08.642Z,1019.87
2018-08-04T05:42:18.490Z,1019.92
2018-08-04T05:43:28.682Z,1019.97
2018-08-04T05:44:38.176Z,1020.02
2018-08-04T05:45:47.209Z,1020.02
2018-08-04T05:46:56.794Z,1020.05
2018-08-04T05:48:06.911Z,1020.05
2018-08-04T05:49:17.049Z,1020.08
2018-08-04T05:50:26.362Z,1020.09
2018-08-04T05:51:36.203Z,1020.09
2018-08-04T05:52:46.057Z,1020.12
2018-08-04T05:53:56.177Z,1020.13
2018-08-04T05:55:06.021Z,1020.16
2018-08-04T05:56:15.866Z,1020.17
2018-08-04T05:57:25.989Z,1020.21
2018-08-04T05:58:35.561Z,1020.25
2018-08-04T05:59:45.412Z,1020.24
2018-08-04T06:00:54.727Z,1020.23
2018-08-04T06:02:04.321Z,1020.27
2018-08-04T06:03:14.176Z,1020.27
2018-08-04T06:04:24.725Z,1020.27
2018-08-04T06:05:34.581Z,1020.24
2018-08-04T06:06:44.718Z,1020.21
2018-08-04T06:07:54.294Z,1020.2
2018-08-04T06:09:04.413Z,1020.2
2018-08-04T06:10:14.258Z,1020.2
2018-08-04T06:11:24.372Z,1020.21
2018-08-04T06:12:34.222Z,1020.21
2018-08-04T06:13:43.800Z,1020.21
2018-08-04T06:14:53.378Z,1020.21
2018-08-04T06:16:03.225Z,1020.23
2018-08-04T06:17:12.540Z,1020.16
2018-08-04T06:18:22.659Z,1020.18
2018-08-04T06:19:32.495Z,1020.16
2018-08-04T06:20:42.076Z,1020.19
2018-08-04T06:21:51.925Z,1020.18
2018-08-04T06:23:01.847Z,1020.17
2018-08-04T06:24:11.207Z,1020.19
2018-08-04T06:25:21.048Z,1020.21
2018-08-04T06:26:31.161Z,1020.17
2018-08-04T06:27:41.286Z,1020.18
2018-08-04T06:28:51.141Z,1020.17
2018-08-04T06:30:00.988Z,1020.2
2018-08-04T06:31:10.295Z,1020.16
2018-08-04T06:32:20.142Z,1020.2
2018-08-04T06:33:29.993Z,1020.19
2018-08-04T06:34:39.864Z,1020.17
2018-08-04T06:35:49.442Z,1020.18
2018-08-04T06:36:59.020Z,1020.16
2018-08-04T06:38:08.871Z,1020.17
2018-08-04T06:39:18.719Z,1020.15
2018-08-04T06:40:28.567Z,1020.16
2018-08-04T06:41:38.436Z,1020.15
2018-08-04T06:42:48.860Z,1020.15
2018-08-04T06:43:58.710Z,1020.17
2018-08-04T06:45:08.280Z,1020.22
2018-08-04T06:46:17.852Z,1020.23
2018-08-04T06:47:27.707Z,1020.24
2018-08-04T06:48:37.011Z,1020.23
2018-08-04T06:49:46.599Z,1020.27
2018-08-04T06:50:56.449Z,1020.24
2018-08-04T06:52:06.295Z,1020.25
2018-08-04T06:53:15.868Z,1020.26
2018-08-04T06:54:25.713Z,1020.25
2018-08-04T06:55:35.594Z,1020.26
2018-08-04T06:56:45.179Z,1020.27
2018-08-04T06:57:55.022Z,1020.3
2018-08-04T06:59:04.867Z,1020.29
2018-08-04T07:00:14.998Z,1020.27
2018-08-04T07:01:24.574Z,1020.28
2018-08-04T07:02:34.146Z,1020.27
2018-08-04T07:03:43.990Z,1020.26
2018-08-04T07:04:54.154Z,1020.27
2018-08-04T07:06:03.744Z,1020.25
2018-08-04T07:07:13.591Z,1020.27
2018-08-04T07:08:23.441Z,1020.26
2018-08-04T07:09:33.559Z,1020.28
2018-08-04T07:10:43.411Z,1020.28
2018-08-04T07:11:53.532Z,1020.26
2018-08-04T07:13:03.379Z,1020.31
2018-08-04T07:14:12.957Z,1020.23
2018-08-04T07:15:22.530Z,1020.3
2018-08-04T07:16:32.384Z,1020.31
2018-08-04T07:17:41.962Z,1020.25
2018-08-04T07:18:51.539Z,1020.3
2018-08-04T07:20:00.577Z,1020.29
2018-08-04T07:21:10.700Z,1020.32
2018-08-04T07:22:20.273Z,1020.33
2018-08-04T07:23:30.127Z,1020.35
2018-08-04T07:24:39.697Z,1020.36
2018-08-04T07:25:49.005Z,1020.33
2018-08-04T07:26:58.589Z,1020.33
2018-08-04T07:28:08.434Z,1020.36
2018-08-04T07:29:18.315Z,1020.36
2018-08-04T07:30:27.877Z,1020.34
2018-08-04T07:31:37.717Z,1020.36
2018-08-04T07:32:47.019Z,1020.34
2018-08-04T07:33:56.320Z,1020.32
2018-08-04T07:35:05.626Z,1020.34
2018-08-04T07:36:15.482Z,1020.33
2018-08-04T07:37:25.607Z,1020.3
2018-08-04T07:38:35.466Z,1020.36
2018-08-04T07:39:44.782Z,1020.34
2018-08-04T07:40:54.628Z,1020.31
2018-08-04T07:42:05.256Z,1020.29
2018-08-04T07:43:15.378Z,1020.3
2018-08-04T07:44:25.493Z,1020.33
2018-08-04T07:45:35.607Z,1020.3
2018-08-04T07:46:44.908Z,1020.27
2018-08-04T07:47:54.217Z,1020.25
2018-08-04T07:49:04.139Z,1020.28
2018-08-04T07:50:14.610Z,1020.26
2018-08-04T07:51:23.968Z,1020.32
2018-08-04T07:52:33.819Z,1020.3
2018-08-04T07:53:43.404Z,1020.24
2018-08-04T07:54:52.713Z,1020.29
2018-08-04T07:56:02.294Z,1020.27
2018-08-04T07:57:11.873Z,1020.22
2018-08-04T07:58:21.995Z,1020.24
2018-08-04T07:59:31.360Z,1020.23
2018-08-04T08:00:41.245Z,1020.27
2018-08-04T08:01:51.089Z,1020.31
2018-08-04T08:03:00.665Z,1020.31
2018-08-04T08:04:10.248Z,1020.27
2018-08-04T08:05:19.552Z,1020.24
2018-08-04T08:06:29.143Z,1020.2
2018-08-04T08:07:38.996Z,1020.24
2018-08-04T08:08:48.300Z,1020.21
2018-08-04T08:09:57.607Z,1020.23
2018-08-04T08:11:07.227Z,1020.22
2018-08-04T08:12:17.483Z,1020.22
2018-08-04T08:13:26.793Z,1020.2
2018-08-04T08:14:36.909Z,1020.22
2018-08-04T08:15:46.536Z,1020.22
2018-08-04T08:16:56.656Z,1020.19
2018-08-04T08:18:06.232Z,1020.19
2018-08-04T08:19:15.543Z,1020.2
2018-08-04T08:20:25.516Z,1020.23
2018-08-04T08:21:34.555Z,1020.21
2018-08-04T08:22:44.672Z,1020.26
2018-08-04T08:23:54.263Z,1020.23
2018-08-04T08:25:04.115Z,1020.25
2018-08-04T08:26:13.964Z,1020.24
2018-08-04T08:27:23.810Z,1020.2
2018-08-04T08:28:33.387Z,1020.22
2018-08-04T08:29:43.503Z,1020.22
2018-08-04T08:30:53.360Z,1020.22
2018-08-04T08:32:03.209Z,1020.23
2018-08-04T08:33:12.807Z,1020.27
2018-08-04T08:34:22.388Z,1020.24
2018-08-04T08:35:32.499Z,1020.26
2018-08-04T08:36:42.339Z,1020.28
2018-08-04T08:37:52.235Z,1020.34
2018-08-04T08:39:02.078Z,1020.34
2018-08-04T08:40:11.923Z,1020.29
2018-08-04T08:41:21.610Z,1020.29
2018-08-04T08:42:30.934Z,1020.29
2018-08-04T08:43:41.056Z,1020.25
2018-08-04T08:44:50.904Z,1020.22
2018-08-04T08:46:01.019Z,1020.18
2018-08-04T08:47:10.637Z,1020.19
2018-08-04T08:48:20.077Z,1020.21
2018-08-04T08:49:29.918Z,1020.19
2018-08-04T08:50:39.230Z,1020.17
2018-08-04T08:51:48.809Z,1020.15
2018-08-04T08:52:58.180Z,1020.19
2018-08-04T08:54:08.164Z,1020.18
2018-08-04T08:55:19.067Z,1020.19
2018-08-04T08:56:28.916Z,1020.19
2018-08-04T08:57:38.509Z,1020.22
2018-08-04T08:58:47.823Z,1020.23
2018-08-04T08:59:57.678Z,1020.21
2018-08-04T09:01:07.540Z,1020.24
2018-08-04T09:02:17.753Z,1020.25
2018-08-04T09:03:27.870Z,1020.26
2018-08-04T09:04:37.728Z,1020.24
2018-08-04T09:05:47.845Z,1020.2
2018-08-04T09:06:57.749Z,1020.16
2018-08-04T09:08:07.604Z,1020.23
2018-08-04T09:09:17.288Z,1020.23
2018-08-04T09:10:27.146Z,1020.21
2018-08-04T09:11:36.184Z,1020.25
2018-08-04T09:12:45.492Z,1020.21
2018-08-04T09:13:55.074Z,1020.28
2018-08-04T09:15:04.653Z,1020.23
2018-08-04T09:16:14.777Z,1020.17
2018-08-04T09:17:24.635Z,1020.18
2018-08-04T09:18:34.479Z,1020.18
2018-08-04T09:19:44.337Z,1020.23
2018-08-04T09:20:53.918Z,1020.21
2018-08-04T09:22:03.761Z,1020.2
2018-08-04T09:23:13.876Z,1020.25
2018-08-04T09:24:23.994Z,1020.2
2018-08-04T09:25:33.304Z,1020.23
2018-08-04T09:26:42.915Z,1020.19
2018-08-04T09:27:52.761Z,1020.19
2018-08-04T09:29:02.065Z,1020.22
2018-08-04T09:30:11.373Z,1020.24
2018-08-04T09:31:20.949Z,1020.25
2018-08-04T09:32:30.254Z,1020.23
2018-08-04T09:33:40.101Z,1020.27
2018-08-04T09:34:50.216Z,1020.28
2018-08-04T09:35:59.794Z,1020.19
2018-08-04T09:37:09.382Z,1020.17
2018-08-04T09:38:19.280Z,1020.14
2018-08-04T09:39:28.858Z,1020.2
2018-08-04T09:40:38.735Z,1020.17
2018-08-04T09:41:48.590Z,1020.14
2018-08-04T09:42:57.893Z,1020.1
2018-08-04T09:44:07.193Z,1020.11
2018-08-04T09:45:16.506Z,1020.1
2018-08-04T09:46:26.084Z,1020.06
2018-08-04T09:47:35.934Z,1020.11
2018-08-04T09:48:45.511Z,1020.11
2018-08-04T09:49:55.095Z,1020.09
2018-08-04T09:51:04.682Z,1020.11
2018-08-04T09:52:14.265Z,1020.12
2018-08-04T09:53:24.181Z,1020.08
2018-08-04T09:54:34.042Z,1020.09
2018-08-04T09:55:43.618Z,1020.12
2018-08-04T09:56:52.936Z,1020.07
2018-08-04T09:58:03.061Z,1020.09
2018-08-04T09:59:12.380Z,1020.13
2018-08-04T10:00:22.232Z,1020.14
2018-08-04T10:01:31.810Z,1020.14
2018-08-04T10:02:41.391Z,1020.07
2018-08-04T10:03:51.278Z,1020.1
2018-08-04T10:05:01.413Z,1020.12
2018-08-04T10:06:11.769Z,1020.08
2018-08-04T10:07:21.078Z,1020.11
2018-08-04T10:08:31.193Z,1020.1
2018-08-04T10:09:41.038Z,1020.09
2018-08-04T10:10:50.915Z,1020.09
2018-08-04T10:12:00.504Z,1020.07
2018-08-04T10:13:10.086Z,1020.07
2018-08-04T10:14:19.950Z,1019.98
2018-08-04T10:15:30.066Z,1019.99
2018-08-04T10:16:39.645Z,1019.97
2018-08-04T10:17:49.490Z,1019.95
2018-08-04T10:18:58.794Z,1019.94
2018-08-04T10:20:08.917Z,1019.95
2018-08-04T10:21:19.387Z,1019.93
2018-08-04T10:22:28.965Z,1019.9
2018-08-04T10:23:38.829Z,1019.9
2018-08-04T10:24:48.960Z,1019.97
2018-08-04T10:25:59.081Z,1019.91
2018-08-04T10:27:09.007Z,1019.93
2018-08-04T10:28:19.143Z,1019.92
2018-08-04T10:29:28.450Z,1019.89
2018-08-04T10:30:37.492Z,1019.9
2018-08-04T10:31:47.668Z,1019.88
2018-08-04T10:32:57.715Z,1019.84
2018-08-04T10:34:07.305Z,1019.92
2018-08-04T10:35:16.878Z,1019.9
2018-08-04T10:36:26.449Z,1019.83
2018-08-04T10:37:36.300Z,1019.86
2018-08-04T10:38:46.420Z,1019.81
2018-08-04T10:39:55.730Z,1019.84
2018-08-04T10:41:05.040Z,1019.79
2018-08-04T10:42:14.889Z,1019.79
2018-08-04T10:43:24.197Z,1019.77
2018-08-04T10:44:34.116Z,1019.73
2018-08-04T10:45:43.967Z,1019.72
2018-08-04T10:46:53.823Z,1019.7
2018-08-04T10:48:03.945Z,1019.75
2018-08-04T10:49:14.064Z,1019.78
2018-08-04T10:50:24.191Z,1019.69
2018-08-04T10:51:34.045Z,1019.73
2018-08-04T10:52:43.349Z,1019.73
2018-08-04T10:53:53.198Z,1019.71
2018-08-04T10:55:03.048Z,1019.81
2018-08-04T10:56:12.895Z,1019.73
2018-08-04T10:57:22.204Z,1019.79
2018-08-04T10:58:31.785Z,1019.75
2018-08-04T10:59:41.363Z,1019.75
2018-08-04T11:00:50.970Z,1019.69
2018-08-04T11:02:00.818Z,1019.67
2018-08-04T11:03:10.397Z,1019.65
2018-08-04T11:04:20.246Z,1019.71
2018-08-04T11:05:29.556Z,1019.75
2018-08-04T11:06:39.407Z,1019.68
2018-08-04T11:07:48.996Z,1019.67
2018-08-04T11:08:58.040Z,1019.64
2018-08-04T11:10:08.168Z,1019.62
2018-08-04T11:11:18.068Z,1019.51
2018-08-04T11:12:27.671Z,1019.54
2018-08-04T11:13:37.466Z,1019.64
2018-08-04T11:14:47.312Z,1019.63
2018-08-04T11:15:56.890Z,1019.62
2018-08-04T11:17:06.469Z,1019.62
2018-08-04T11:18:16.120Z,1019.71
2018-08-04T11:19:26.246Z,1019.68
2018-08-04T11:20:36.094Z,1019.64
2018-08-04T11:21:45.960Z,1019.62
2018-08-04T11:22:55.803Z,1019.68
2018-08-04T11:24:05.404Z,1019.66
2018-08-04T11:25:16.009Z,1019.65
2018-08-04T11:26:25.861Z,1019.63
2018-08-04T11:27:35.540Z,1019.7
2018-08-04T11:28:45.691Z,1019.7
2018-08-04T11:29:55.006Z,1019.69
2018-08-04T11:31:04.317Z,1019.67
2018-08-04T11:32:13.897Z,1019.56
2018-08-04T11:33:23.480Z,1019.64
2018-08-04T11:34:33.060Z,1019.63
2018-08-04T11:35:42.909Z,1019.64
2018-08-04T11:36:52.494Z,1019.65
2018-08-04T11:38:02.340Z,1019.66
2018-08-04T11:39:11.653Z,1019.59
2018-08-04T11:40:21.280Z,1019.59
2018-08-04T11:41:31.393Z,1019.58
2018-08-04T11:42:41.242Z,1019.59
2018-08-04T11:43:50.548Z,1019.57
2018-08-04T11:45:00.130Z,1019.66
2018-08-04T11:46:10.254Z,1019.66
2018-08-04T11:47:20.380Z,1019.64
2018-08-04T11:48:30.230Z,1019.62
2018-08-04T11:49:40.079Z,1019.64
2018-08-04T11:50:49.657Z,1019.64
2018-08-04T11:51:59.556Z,1019.59
2018-08-04T11:53:09.401Z,1019.58
2018-08-04T11:54:18.705Z,1019.54
2018-08-04T11:55:28.557Z,1019.58
2018-08-04T11:56:38.678Z,1019.67
2018-08-04T11:57:48.036Z,1019.66
2018-08-04T11:58:58.157Z,1019.59
2018-08-04T12:00:07.563Z,1019.65
2018-08-04T12:01:17.146Z,1019.63
2018-08-04T12:02:27.273Z,1019.55
2018-08-04T12:03:37.132Z,1019.58
2018-08-04T12:04:46.720Z,1019.54
2018-08-04T12:05:56.032Z,1019.57
2018-08-04T12:07:05.342Z,1019.58
2018-08-04T12:08:15.302Z,1019.6
2018-08-04T12:09:25.147Z,1019.52
2018-08-04T12:10:34.995Z,1019.54
2018-08-04T12:11:44.577Z,1019.51
2018-08-04T12:12:54.429Z,1019.54
2018-08-04T12:14:04.007Z,1019.56
2018-08-04T12:15:13.860Z,1019.55
2018-08-04T12:16:23.169Z,1019.48
2018-08-04T12:17:32.746Z,1019.51
2018-08-04T12:18:42.601Z,1019.55
2018-08-04T12:19:52.456Z,1019.45
2018-08-04T12:21:02.319Z,1019.51
2018-08-04T12:22:12.170Z,1019.53
2018-08-04T12:23:22.027Z,1019.49
2018-08-04T12:24:32.147Z,1019.52
2018-08-04T12:25:41.731Z,1019.58
2018-08-04T12:26:51.680Z,1019.49
2018-08-04T12:28:00.732Z,1019.51
2018-08-04T12:29:10.051Z,1019.65
2018-08-04T12:30:19.632Z,1019.58
2018-08-04T12:31:29.261Z,1019.58
2018-08-04T12:32:39.432Z,1019.64
2018-08-04T12:33:49.018Z,1019.57
2018-08-04T12:34:58.328Z,1019.61
2018-08-04T12:36:08.454Z,1019.64
2018-08-04T12:37:17.774Z,1019.63
2018-08-04T12:38:27.407Z,1019.6
2018-08-04T12:39:37.270Z,1019.6
2018-08-04T12:40:46.868Z,1019.59
2018-08-04T12:41:56.465Z,1019.57
2018-08-04T12:43:06.050Z,1019.56
2018-08-04T12:44:15.906Z,1019.6
2018-08-04T12:45:25.784Z,1019.55
2018-08-04T12:46:35.888Z,1019.62
2018-08-04T12:47:45.477Z,1019.56
2018-08-04T12:48:55.059Z,1019.53
2018-08-04T12:50:04.924Z,1019.49
2018-08-04T12:51:14.515Z,1019.56
2018-08-04T12:52:24.389Z,1019.51
2018-08-04T12:53:33.985Z,1019.51
2018-08-04T12:54:43.852Z,1019.52
2018-08-04T12:55:53.168Z,1019.44
2018-08-04T12:57:02.767Z,1019.48
2018-08-04T12:58:12.902Z,1019.53
2018-08-04T12:59:22.761Z,1019.49
2018-08-04T13:00:32.424Z,1019.47
2018-08-04T13:01:41.476Z,1019.49
2018-08-04T13:02:51.697Z,1019.46
2018-08-04T13:04:01.553Z,1019.58
2018-08-04T13:05:11.137Z,1019.53
2018-08-04T13:06:20.449Z,1019.57
2018-08-04T13:07:29.771Z,1019.51
2018-08-04T13:08:39.954Z,1019.57
2018-08-04T13:09:50.356Z,1019.59
2018-08-04T13:11:00.491Z,1019.58
2018-08-04T13:12:10.083Z,1019.57
2018-08-04T13:13:19.678Z,1019.6
2018-08-04T13:14:29.815Z,1019.53
2018-08-04T13:15:39.134Z,1019.47
2018-08-04T13:16:48.721Z,1019.5
2018-08-04T13:17:58.310Z,1019.46
2018-08-04T13:19:07.902Z,1019.5
2018-08-04T13:20:17.222Z,1019.45
2018-08-04T13:21:27.082Z,1019.48
2018-08-04T13:22:37.203Z,1019.3
2018-08-04T13:23:46.790Z,1019.43
2018-08-04T13:24:56.433Z,1019.46
2018-08-04T13:26:06.568Z,1019.48
2018-08-04T13:27:16.151Z,1019.41
2018-08-04T13:28:26.004Z,1019.37
2018-08-04T13:29:35.635Z,1019.37
2018-08-04T13:30:46.050Z,1019.32
2018-08-04T13:31:55.909Z,1019.36
2018-08-04T13:33:05.768Z,1019.27
2018-08-04T13:34:15.360Z,1019.29
2018-08-04T13:35:25.225Z,1019.3
2018-08-04T13:36:34.541Z,1019.35
2018-08-04T13:37:44.673Z,1019.41
2018-08-04T13:38:54.257Z,1019.42
2018-08-04T13:40:03.566Z,1019.4
2018-08-04T13:41:13.157Z,1019.33
2018-08-04T13:42:23.011Z,1019.36
2018-08-04T13:43:32.605Z,1019.37
2018-08-04T13:44:41.997Z,1019.31
2018-08-04T13:45:51.855Z,1019.29
2018-08-04T13:47:00.636Z,1019.33
2018-08-04T13:48:10.757Z,1019.27
2018-08-04T13:49:20.346Z,1019.29
2018-08-04T13:50:30.207Z,1019.32
2018-08-04T13:51:39.523Z,1019.25
2018-08-04T13:52:49.374Z,1019.32
2018-08-04T13:53:58.697Z,1019.35
2018-08-04T13:55:08.279Z,1019.41
2018-08-04T13:56:18.143Z,1019.43
2018-08-04T13:57:27.728Z,1019.4
2018-08-04T13:58:36.774Z,1019.45
2018-08-04T13:59:46.963Z,1019.4
2018-08-04T14:00:56.908Z,1019.39
2018-08-04T14:02:06.499Z,1019.43
2018-08-04T14:03:16.636Z,1019.43
2018-08-04T14:04:26.227Z,1019.31
2018-08-04T14:05:35.824Z,1019.3
2018-08-04T14:06:45.708Z,1019.33